createdAt,value
2023-01-30T00:00:43.860Z,100551.81
2023-01-30T00:03:13.348Z,100540.97
2023-01-30T00:05:45.327Z,100544.53
2023-01-30T00:08:14.767Z,100539.44
2023-01-30T00:10:45.993Z,100542.31
2023-01-30T00:13:16.992Z,100544.06
2023-01-30T00:15:46.926Z,100555.69
2023-01-30T00:18:16.388Z,100559.34
2023-01-30T00:20:48.430Z,100565.41
2023-01-30T00:23:17.817Z,100531.97
2023-01-30T00:25:48.426Z,100521.78
2023-01-30T00:28:18.140Z,100511.59
2023-01-30T00:30:47.553Z,100503.31
2023-01-30T00:33:16.969Z,100495.78
2023-01-30T00:35:49.512Z,100498.44
2023-01-30T00:38:19.477Z,100488.25
2023-01-30T00:40:49.903Z,100496.34
2023-01-30T00:43:33.961Z,100498.88
2023-01-30T00:46:18.127Z,100475.38
2023-01-30T00:48:47.570Z,100463.53
2023-01-30T00:51:19.590Z,100458.09
2023-01-30T00:53:48.964Z,100455.53
2023-01-30T00:56:18.388Z,100441.47
2023-01-30T00:58:47.771Z,100440.47
2023-01-30T01:01:17.162Z,100448.31
2023-01-30T01:03:46.917Z,100421.31
2023-01-30T01:06:19.144Z,100432.47
2023-01-30T01:08:48.536Z,100442.84
2023-01-30T01:11:24.657Z,100421.03
2023-01-30T01:13:55.896Z,100422.69
2023-01-30T01:16:26.965Z,100409.19
2023-01-30T01:18:56.829Z,100403.28
2023-01-30T01:21:28.995Z,100399.97
2023-01-30T01:24:00.901Z,100386.53
2023-01-30T01:26:30.630Z,100383.31
2023-01-30T01:29:00.591Z,100359.59
2023-01-30T01:31:30.132Z,100381.75
2023-01-30T01:34:00.001Z,100358.06
2023-01-30T01:39:21.390Z,100358.34
2023-01-30T01:41:48.292Z,100360.34
2023-01-30T01:44:18.073Z,100351.00
2023-01-30T01:46:50.094Z,100347.59
2023-01-30T01:49:24.070Z,100339.16
2023-01-30T01:51:59.368Z,100332.31
2023-01-30T01:54:33.936Z,100329.03
2023-01-30T01:57:06.105Z,100323.88
2023-01-30T01:59:39.361Z,100317.38
2023-01-30T02:02:11.757Z,100312.38
2023-01-30T02:04:57.226Z,100306.50
2023-01-30T02:07:29.969Z,100304.06
2023-01-30T02:10:00.314Z,100277.09
2023-01-30T02:12:30.104Z,100270.34
2023-01-30T02:15:01.097Z,100255.91
2023-01-30T02:17:30.692Z,100242.09
2023-01-30T02:20:06.764Z,100272.41
2023-01-30T02:23:18.676Z,100233.38
2023-01-30T02:26:06.662Z,100230.03
2023-01-30T02:28:55.056Z,100231.03
2023-01-30T02:31:36.067Z,100208.09
2023-01-30T02:34:14.673Z,100219.06
2023-01-30T02:36:54.924Z,100196.22
2023-01-30T02:39:31.879Z,100155.72
2023-01-30T02:42:06.058Z,100131.47
2023-01-30T02:44:42.197Z,100090.00
2023-01-30T02:47:16.906Z,99987.13
2023-01-30T02:49:50.733Z,99954.97
2023-01-30T02:52:20.128Z,99940.53
2023-01-30T02:54:49.519Z,99914.53
2023-01-30T02:57:22.511Z,99903.44
2023-01-30T02:59:56.603Z,99884.97
2023-01-30T03:03:10.673Z,99863.78
2023-01-30T03:05:50.676Z,99842.78
2023-01-30T03:08:28.583Z,99841.28
2023-01-30T03:11:01.622Z,99829.38
2023-01-30T03:13:37.516Z,99814.09
2023-01-30T03:16:09.779Z,99806.44
2023-01-30T03:18:43.484Z,99786.22
2023-01-30T03:21:14.366Z,99773.47
2023-01-30T03:23:43.784Z,99772.75
2023-01-30T03:26:18.797Z,99766.06
2023-01-30T03:28:49.544Z,99756.81
2023-01-30T03:31:19.078Z,99731.38
2023-01-30T03:33:51.809Z,99741.59
2023-01-30T03:36:21.589Z,99709.47
2023-01-30T03:38:50.993Z,99786.97
2023-01-30T03:41:20.695Z,99685.81
2023-01-30T03:43:50.138Z,99689.28
2023-01-30T03:46:19.620Z,99684.19
2023-01-30T03:48:51.640Z,99662.22
2023-01-30T03:51:21.119Z,99660.47
2023-01-30T03:53:50.500Z,99655.38
2023-01-30T03:56:19.967Z,99653.75
2023-01-30T03:58:49.370Z,99638.53
2023-01-30T04:01:18.805Z,99654.69
2023-01-30T04:03:50.874Z,99656.63
2023-01-30T04:06:20.288Z,99690.59
2023-01-30T04:08:49.705Z,99693.38
2023-01-30T04:11:19.084Z,99668.38
2023-01-30T04:13:48.478Z,99665.69
2023-01-30T04:16:20.322Z,99651.91
2023-01-30T04:18:52.321Z,99653.25
2023-01-30T04:21:22.304Z,99647.88
2023-01-30T04:23:51.748Z,99627.59
2023-01-30T04:26:21.363Z,99627.59
2023-01-30T04:28:50.804Z,99620.84
2023-01-30T04:31:20.429Z,99617.50
2023-01-30T04:33:52.476Z,99602.22
2023-01-30T04:36:21.899Z,99597.09
2023-01-30T04:38:51.331Z,99601.50
2023-01-30T04:41:20.770Z,99603.34
2023-01-30T04:43:50.189Z,99582.31
2023-01-30T04:46:19.698Z,99593.38
2023-01-30T04:48:51.717Z,99577.53
2023-01-30T04:51:21.103Z,99565.78
2023-01-30T04:53:50.466Z,99553.81
2023-01-30T04:56:20.086Z,99550.47
2023-01-30T04:58:49.486Z,99542.81
2023-01-30T05:01:24.354Z,99560.00
2023-01-30T05:03:56.997Z,99544.00
2023-01-30T05:06:26.972Z,99547.44
2023-01-30T05:08:57.876Z,99550.13
2023-01-30T05:11:28.462Z,99540.91
2023-01-30T05:13:58.360Z,99553.66
2023-01-30T05:16:28.347Z,99558.78
2023-01-30T05:19:00.377Z,99534.31
2023-01-30T05:21:30.512Z,99543.00
2023-01-30T05:24:00.464Z,99544.72
2023-01-30T05:26:29.900Z,99533.81
2023-01-30T05:29:00.504Z,99530.56
2023-01-30T05:31:30.006Z,99517.63
2023-01-30T05:34:02.021Z,99525.28
2023-01-30T05:36:31.545Z,99526.09
2023-01-30T05:39:00.923Z,99538.03
2023-01-30T05:41:30.545Z,99520.13
2023-01-30T05:43:59.956Z,99520.03
2023-01-30T05:46:29.495Z,99515.75
2023-01-30T05:49:01.854Z,99513.03
2023-01-30T05:51:31.215Z,99513.69
2023-01-30T05:54:00.888Z,99511.84
2023-01-30T05:56:33.245Z,99510.16
2023-01-30T05:59:04.700Z,99508.41
2023-01-30T06:01:34.498Z,99497.91
2023-01-30T06:04:06.749Z,99509.69
2023-01-30T06:06:36.252Z,99501.06
2023-01-30T06:09:05.838Z,99509.53
2023-01-30T06:11:35.467Z,99514.63
2023-01-30T06:14:04.927Z,99532.53
2023-01-30T06:16:34.377Z,99533.97
2023-01-30T06:19:06.410Z,99516.94
2023-01-30T06:21:35.833Z,99530.47
2023-01-30T06:24:05.221Z,99538.91
2023-01-30T06:26:34.780Z,99542.97
2023-01-30T06:29:04.171Z,99537.00
2023-01-30T06:31:33.741Z,99543.59
2023-01-30T06:34:05.750Z,99555.41
2023-01-30T06:36:35.266Z,99549.31
2023-01-30T06:39:04.703Z,99568.91
2023-01-30T06:41:34.077Z,99567.09
2023-01-30T06:44:03.520Z,99564.59
2023-01-30T06:46:32.954Z,99574.78
2023-01-30T06:49:02.383Z,99567.25
2023-01-30T06:51:34.368Z,99567.34
2023-01-30T06:54:03.746Z,99575.69
2023-01-30T06:56:33.237Z,99563.81
2023-01-30T06:59:02.763Z,99565.66
2023-01-30T07:01:32.334Z,99569.97
2023-01-30T07:04:01.795Z,99568.13
2023-01-30T07:06:33.905Z,99556.81
2023-01-30T07:09:03.379Z,99552.53
2023-01-30T07:11:32.912Z,99549.56
2023-01-30T07:14:02.384Z,99555.59
2023-01-30T07:16:31.951Z,99552.19
2023-01-30T07:19:01.398Z,99566.50
2023-01-30T07:21:30.916Z,99560.34
2023-01-30T07:24:02.888Z,99570.78
2023-01-30T07:26:32.450Z,99564.13
2023-01-30T07:29:01.909Z,99567.47
2023-01-30T07:31:31.370Z,99576.78
2023-01-30T07:34:00.763Z,99583.63
2023-01-30T07:36:33.561Z,99586.25
2023-01-30T07:39:05.636Z,99603.72
2023-01-30T07:41:35.111Z,99616.06
2023-01-30T07:44:04.887Z,99617.91
2023-01-30T07:46:35.167Z,99626.41
2023-01-30T07:49:05.036Z,99633.13
2023-01-30T07:51:34.821Z,99659.31
2023-01-30T07:54:06.998Z,99655.88
2023-01-30T07:56:37.297Z,99679.59
2023-01-30T07:59:06.704Z,99689.78
2023-01-30T08:01:36.336Z,99703.53
2023-01-30T08:04:05.987Z,99766.88
2023-01-30T08:06:39.083Z,99759.84
2023-01-30T08:09:11.505Z,99798.59
2023-01-30T08:11:40.896Z,99843.53
2023-01-30T08:14:10.305Z,99812.34
2023-01-30T08:16:39.771Z,99812.72
2023-01-30T08:19:09.237Z,99833.19
2023-01-30T08:21:38.974Z,99854.53
2023-01-30T08:24:11.560Z,99859.63
2023-01-30T08:26:40.949Z,99870.72
2023-01-30T08:29:10.388Z,99876.34
2023-01-30T08:31:39.889Z,99890.75
2023-01-30T08:34:09.336Z,99892.59
2023-01-30T08:36:38.746Z,99886.78
2023-01-30T08:39:10.843Z,99905.22
2023-01-30T08:41:43.073Z,99918.34
2023-01-30T08:44:12.506Z,99933.03
2023-01-30T08:46:42.690Z,99959.47
2023-01-30T08:49:13.410Z,99992.97
2023-01-30T08:51:42.932Z,100017.97
2023-01-30T08:54:15.368Z,100052.97
2023-01-30T08:56:44.819Z,100065.19
2023-01-30T08:59:14.237Z,100085.22
2023-01-30T09:01:43.678Z,100103.88
2023-01-30T09:04:13.066Z,100124.69
2023-01-30T09:06:42.425Z,100134.47
2023-01-30T09:09:11.820Z,100131.63
2023-01-30T09:11:43.953Z,100145.66
2023-01-30T09:14:13.356Z,100151.78
2023-01-30T09:16:42.824Z,100149.03
2023-01-30T09:19:12.365Z,100157.25
2023-01-30T09:21:41.845Z,100168.09
2023-01-30T09:24:11.406Z,100179.31
2023-01-30T09:26:45.221Z,100175.19
2023-01-30T09:29:15.013Z,100185.72
2023-01-30T09:31:44.449Z,100204.97
2023-01-30T09:34:13.902Z,100217.38
2023-01-30T09:36:43.342Z,100223.75
2023-01-30T09:39:12.849Z,100234.16
2023-01-30T09:42:11.962Z,100251.16
2023-01-30T09:44:55.575Z,100273.84
2023-01-30T09:47:31.432Z,100277.38
2023-01-30T09:50:08.866Z,100285.56
2023-01-30T09:52:42.479Z,100293.84
2023-01-30T09:55:20.449Z,100285.66
2023-01-30T09:57:53.685Z,100314.34
2023-01-30T10:00:27.918Z,100299.81
2023-01-30T10:03:03.918Z,100304.25
2023-01-30T10:05:39.625Z,100303.38
2023-01-30T10:08:27.116Z,100300.13
2023-01-30T10:11:10.106Z,100272.38
2023-01-30T10:14:07.204Z,100280.53
2023-01-30T10:16:41.781Z,100260.03
2023-01-30T10:19:35.664Z,100267.50
2023-01-30T10:22:14.383Z,100266.88
2023-01-30T10:24:52.056Z,100257.09
2023-01-30T10:27:22.395Z,100245.75
2023-01-30T10:29:57.102Z,100240.16
2023-01-30T10:32:30.246Z,100232.38
2023-01-30T10:35:01.335Z,100230.22
2023-01-30T10:37:35.152Z,100236.88
2023-01-30T10:40:08.348Z,100226.25
2023-01-30T10:42:41.183Z,100241.38
2023-01-30T10:45:16.211Z,100247.25
2023-01-30T10:47:54.994Z,100231.78
2023-01-30T10:50:28.730Z,100235.44
2023-01-30T10:53:02.888Z,100263.94
2023-01-30T10:55:38.416Z,100249.50
2023-01-30T10:58:15.148Z,100285.81
2023-01-30T11:00:52.263Z,100211.81
2023-01-30T11:03:25.535Z,100242.56
2023-01-30T11:05:56.733Z,100271.50
2023-01-30T11:08:27.920Z,100271.19
2023-01-30T11:10:58.555Z,100242.56
2023-01-30T11:13:31.361Z,100201.41
2023-01-30T11:16:08.360Z,100193.22
2023-01-30T11:21:44.004Z,100178.75
2023-01-30T11:24:19.725Z,100180.09
2023-01-30T11:26:49.927Z,100155.63
2023-01-30T11:29:27.994Z,100123.22
2023-01-30T11:32:04.588Z,100133.91
2023-01-30T11:34:34.122Z,100128.03
2023-01-30T11:37:24.689Z,100122.50
2023-01-30T11:39:55.209Z,100092.34
2023-01-30T11:42:28.537Z,100091.97
2023-01-30T11:45:15.648Z,100084.06
2023-01-30T11:47:57.975Z,100064.66
2023-01-30T11:50:39.500Z,100051.53
2023-01-30T11:53:22.967Z,100042.50
2023-01-30T11:56:02.898Z,100031.16
2023-01-30T11:58:37.558Z,100013.72
2023-01-30T12:01:07.769Z,99995.25
2023-01-30T12:03:45.523Z,99987.97
2023-01-30T12:06:15.044Z,99963.03
2023-01-30T12:08:45.707Z,99979.56
2023-01-30T12:11:29.097Z,99979.41
2023-01-30T12:14:04.204Z,99988.69
2023-01-30T12:16:45.829Z,99994.19
2023-01-30T12:19:27.541Z,100051.88
2023-01-30T12:22:02.789Z,100062.09
2023-01-30T12:24:39.073Z,100110.78
2023-01-30T12:27:15.429Z,100122.91
2023-01-30T12:29:54.155Z,100105.88
2023-01-30T12:32:25.758Z,100087.09
2023-01-30T12:34:58.256Z,100106.78
2023-01-30T12:37:46.118Z,100098.19
2023-01-30T12:40:24.777Z,100086.25
2023-01-30T12:43:14.133Z,100081.22
2023-01-30T12:45:46.645Z,100080.88
2023-01-30T12:48:44.143Z,100061.72
2023-01-30T12:51:34.378Z,100040.56
2023-01-30T12:54:08.884Z,100051.13
2023-01-30T12:56:51.466Z,100046.88
2023-01-30T12:59:24.961Z,100048.66
2023-01-30T13:02:08.225Z,100047.97
2023-01-30T13:04:56.429Z,100053.41
2023-01-30T13:07:38.148Z,100052.03
2023-01-30T13:10:14.046Z,100043.19
2023-01-30T13:12:49.524Z,100061.72
2023-01-30T13:15:24.964Z,100070.06
2023-01-30T13:18:02.903Z,100071.94
2023-01-30T13:20:46.572Z,100089.69
2023-01-30T13:23:20.955Z,100099.97
2023-01-30T13:25:58.733Z,100098.38
2023-01-30T13:28:29.864Z,100124.97
2023-01-30T13:30:59.532Z,100124.25
2023-01-30T13:33:31.606Z,100144.78
2023-01-30T13:36:08.664Z,100161.63
2023-01-30T13:38:43.650Z,100184.81
2023-01-30T13:41:15.579Z,100205.69
2023-01-30T13:43:47.251Z,100218.06
2023-01-30T13:46:21.266Z,100201.81
2023-01-30T13:49:03.164Z,100238.56
2023-01-30T13:51:44.696Z,100235.44
2023-01-30T13:54:28.945Z,100252.56
2023-01-30T13:57:02.001Z,100238.19
2023-01-30T13:59:47.307Z,100238.34
2023-01-30T14:02:21.833Z,100246.91
2023-01-30T14:04:55.863Z,100248.88
2023-01-30T14:07:28.137Z,100243.38
2023-01-30T14:10:17.662Z,100224.53
2023-01-30T14:12:48.811Z,100241.78
2023-01-30T14:15:28.909Z,100228.44
2023-01-30T14:18:07.810Z,100232.19
2023-01-30T14:20:38.349Z,100248.81
2023-01-30T14:23:09.614Z,100253.44
2023-01-30T14:25:52.518Z,100274.13
2023-01-30T14:28:47.203Z,100293.16
2023-01-30T14:31:49.979Z,100307.69
2023-01-30T14:34:52.955Z,100312.00
2023-01-30T14:37:34.179Z,100334.97
2023-01-30T14:40:05.161Z,100342.63
2023-01-30T14:42:37.181Z,100377.66
2023-01-30T14:45:08.519Z,100376.97
2023-01-30T14:47:47.155Z,100403.56
2023-01-30T14:50:22.765Z,100441.94
2023-01-30T14:52:52.675Z,100445.25
2023-01-30T14:55:24.248Z,100453.69
2023-01-30T14:58:00.556Z,100479.22
2023-01-30T15:00:33.143Z,100475.00
2023-01-30T15:03:04.402Z,100510.75
2023-01-30T15:05:36.217Z,100525.16
2023-01-30T15:08:09.587Z,100538.94
2023-01-30T15:11:09.706Z,100574.31
2023-01-30T15:13:46.540Z,100582.56
2023-01-30T15:16:42.886Z,100629.28
2023-01-30T15:19:25.778Z,100640.38
2023-01-30T15:22:02.905Z,100659.31
2023-01-30T15:25:01.996Z,100701.13
2023-01-30T15:27:35.697Z,100700.47
2023-01-30T15:30:25.471Z,100736.66
2023-01-30T15:33:10.413Z,100734.91
2023-01-30T15:35:39.854Z,100752.75
2023-01-30T15:38:26.660Z,100765.41
2023-01-30T15:40:57.012Z,100789.28
2023-01-30T15:43:51.175Z,100801.13
2023-01-30T15:46:31.695Z,100813.03
2023-01-30T15:49:11.196Z,100801.91
2023-01-30T15:51:40.783Z,100821.66
2023-01-30T15:54:13.376Z,100819.78
2023-01-30T15:56:43.487Z,100824.66
2023-01-30T15:59:27.686Z,100868.81
2023-01-30T16:02:11.264Z,100869.41
2023-01-30T16:04:40.814Z,100873.72
2023-01-30T16:07:19.398Z,100880.25
2023-01-30T16:10:12.716Z,100879.34
2023-01-30T16:12:42.400Z,100884.34
2023-01-30T16:15:20.179Z,100900.56
2023-01-30T16:17:59.985Z,100887.00
2023-01-30T16:20:29.686Z,100894.47
2023-01-30T16:22:59.183Z,100898.53
2023-01-30T16:25:29.869Z,100904.44
2023-01-30T16:27:59.318Z,100903.44
2023-01-30T16:30:30.128Z,100898.22
2023-01-30T16:33:11.941Z,100895.53
2023-01-30T16:35:46.800Z,100902.75
2023-01-30T16:38:34.237Z,100888.69
2023-01-30T16:41:03.815Z,100923.28
2023-01-30T16:43:34.679Z,100928.25
2023-01-30T16:46:47.726Z,100940.75
2023-01-30T16:49:23.656Z,100926.34
2023-01-30T16:51:53.713Z,100936.56
2023-01-30T16:54:27.649Z,100952.38
2023-01-30T16:56:58.561Z,100975.13
2023-01-30T16:59:32.427Z,100962.25
2023-01-30T17:02:03.361Z,100963.16
2023-01-30T17:04:41.312Z,100976.00
2023-01-30T17:07:34.714Z,100984.44
2023-01-30T17:10:04.161Z,100997.28
2023-01-30T17:12:41.410Z,101002.41
2023-01-30T17:15:34.120Z,100993.97
2023-01-30T17:18:05.766Z,100997.28
2023-01-30T17:20:41.620Z,101003.06
2023-01-30T17:23:12.573Z,101032.78
2023-01-30T17:25:45.043Z,101037.88
2023-01-30T17:28:21.454Z,101031.88
2023-01-30T17:30:53.825Z,101040.66
2023-01-30T17:33:23.325Z,101047.19
2023-01-30T17:35:55.325Z,101042.19
2023-01-30T17:38:24.761Z,101052.28
2023-01-30T17:40:54.210Z,101058.94
2023-01-30T17:43:23.848Z,101054.22
2023-01-30T17:45:53.786Z,101051.81
2023-01-30T17:48:23.799Z,101044.16
2023-01-30T17:50:55.868Z,101041.34
2023-01-30T17:53:25.258Z,101046.22
2023-01-30T17:55:54.717Z,101043.69
2023-01-30T17:58:24.118Z,101055.06
2023-01-30T18:00:53.593Z,101049.22
2023-01-30T18:03:25.932Z,101051.28
2023-01-30T18:05:58.422Z,101051.81
2023-01-30T18:08:27.848Z,101045.81
2023-01-30T18:10:57.305Z,101066.09
2023-01-30T18:13:26.755Z,101064.28
2023-01-30T18:15:59.770Z,101066.97
2023-01-30T18:18:29.581Z,101084.69
2023-01-30T18:21:01.592Z,101071.19
2023-01-30T18:23:31.262Z,101085.59
2023-01-30T18:26:00.716Z,101090.81
2023-01-30T18:28:30.084Z,101091.59
2023-01-30T18:30:59.818Z,101087.78
2023-01-30T18:33:29.402Z,101102.03
2023-01-30T18:36:01.401Z,101108.44
2023-01-30T18:38:30.865Z,101098.78
2023-01-30T18:41:00.367Z,101094.16
2023-01-30T18:43:29.773Z,101102.44
2023-01-30T18:46:06.293Z,101101.31
2023-01-30T18:48:36.259Z,101100.31
2023-01-30T18:51:14.665Z,101097.94
2023-01-30T18:53:44.372Z,101105.94
2023-01-30T18:56:15.221Z,101127.56
2023-01-30T18:58:44.988Z,101129.13
2023-01-30T19:01:15.879Z,101133.06
2023-01-30T19:03:45.555Z,101119.19
2023-01-30T19:06:18.865Z,101122.91
2023-01-30T19:08:48.402Z,101127.88
2023-01-30T19:11:32.000Z,101123.78
2023-01-30T19:14:02.066Z,101143.16
2023-01-30T19:16:32.973Z,101144.16
2023-01-30T19:19:03.177Z,101167.09
2023-01-30T19:21:35.305Z,101146.97
2023-01-30T19:24:06.772Z,101164.31
2023-01-30T19:26:36.954Z,101146.38
2023-01-30T19:29:06.427Z,101148.78
2023-01-30T19:31:36.332Z,101166.34
2023-01-30T19:34:07.428Z,101171.97
2023-01-30T19:36:40.463Z,101180.13
2023-01-30T19:39:09.880Z,101178.34
2023-01-30T19:41:39.941Z,101192.59
2023-01-30T19:44:10.942Z,101184.22
2023-01-30T19:46:40.572Z,101205.59
2023-01-30T19:49:10.062Z,101206.84
2023-01-30T19:51:42.200Z,101211.06
2023-01-30T19:54:13.921Z,101217.94
2023-01-30T19:56:47.471Z,101217.94
2023-01-30T19:59:17.452Z,101209.91
2023-01-30T20:01:47.182Z,101205.47
2023-01-30T20:04:16.674Z,101196.16
2023-01-30T20:06:49.793Z,101204.81
2023-01-30T20:09:19.620Z,101210.56
2023-01-30T20:11:49.089Z,101201.25
2023-01-30T20:14:18.492Z,101193.25
2023-01-30T20:16:48.167Z,101185.59
2023-01-30T20:19:18.524Z,101181.16
2023-01-30T20:21:50.573Z,101199.97
2023-01-30T20:24:20.006Z,101206.84
2023-01-30T20:26:51.726Z,101199.19
2023-01-30T20:29:21.175Z,101198.97
2023-01-30T20:31:50.597Z,101204.81
2023-01-30T20:34:20.226Z,101205.44
2023-01-30T20:36:52.415Z,101217.28
2023-01-30T20:39:22.169Z,101222.13
2023-01-30T20:41:51.551Z,101226.44
2023-01-30T20:44:21.098Z,101231.53
2023-01-30T20:46:50.920Z,101239.66
2023-01-30T20:49:21.762Z,101240.06
2023-01-30T20:51:55.324Z,101251.91
2023-01-30T20:54:25.734Z,101261.59
2023-01-30T20:56:56.756Z,101267.56
2023-01-30T20:59:28.625Z,101279.66
2023-01-30T21:01:58.076Z,101282.84
2023-01-30T21:04:27.592Z,101285.28
2023-01-30T21:06:59.699Z,101282.75
2023-01-30T21:09:29.207Z,101286.16
2023-01-30T21:11:58.630Z,101289.59
2023-01-30T21:14:28.180Z,101294.22
2023-01-30T21:16:57.559Z,101292.41
2023-01-30T21:19:26.980Z,101286.94
2023-01-30T21:22:07.508Z,101293.41
2023-01-30T21:24:36.923Z,101285.66
2023-01-30T21:27:06.458Z,101288.09
2023-01-30T21:29:36.873Z,101281.56
2023-01-30T21:32:06.303Z,101283.09
2023-01-30T21:34:35.981Z,101290.34
2023-01-30T21:37:20.429Z,101297.56
2023-01-30T21:40:02.343Z,101301.13
2023-01-30T21:42:58.848Z,101298.09
2023-01-30T21:45:28.226Z,101294.91
2023-01-30T21:47:57.955Z,101296.19
2023-01-30T21:50:29.788Z,101298.44
2023-01-30T21:53:01.891Z,101298.09
2023-01-30T21:55:31.345Z,101302.28
2023-01-30T21:58:00.707Z,101301.50
2023-01-30T22:00:32.967Z,101306.75
2023-01-30T22:03:02.391Z,101302.66
2023-01-30T22:05:36.530Z,101300.53
2023-01-30T22:08:08.830Z,101305.88
2023-01-30T22:10:38.698Z,101306.13
2023-01-30T22:13:08.141Z,101310.34
2023-01-30T22:15:37.541Z,101306.25
2023-01-30T22:18:07.258Z,101315.66
2023-01-30T22:20:36.692Z,101311.00
2023-01-30T22:23:08.721Z,101322.72
2023-01-30T22:25:38.526Z,101320.31
2023-01-30T22:28:10.163Z,101343.47
2023-01-30T22:30:41.591Z,101340.03
2023-01-30T22:33:11.017Z,101361.56
2023-01-30T22:35:40.466Z,101376.94
2023-01-30T22:38:12.461Z,101376.94
2023-01-30T22:40:41.900Z,101380.41
2023-01-30T22:43:11.325Z,101400.41
2023-01-30T22:45:40.765Z,101409.09
2023-01-30T22:48:10.167Z,101420.16
2023-01-30T22:50:39.642Z,101426.16
2023-01-30T22:53:14.408Z,101435.19
2023-01-30T22:55:43.854Z,101433.13
2023-01-30T22:58:13.226Z,101436.72
2023-01-30T23:00:42.697Z,101438.84
2023-01-30T23:03:12.124Z,101438.06
2023-01-30T23:05:41.544Z,101434.25
2023-01-30T23:08:10.926Z,101421.09
2023-01-30T23:10:44.274Z,101421.88
2023-01-30T23:13:16.787Z,101431.81
2023-01-30T23:15:46.818Z,101432.69
2023-01-30T23:18:28.956Z,101430.38
2023-01-30T23:20:58.335Z,101426.66
2023-01-30T23:23:27.745Z,101419.41
2023-01-30T23:25:59.854Z,101418.88
2023-01-30T23:28:29.230Z,101419.63
2023-01-30T23:30:58.703Z,101411.63
2023-01-30T23:33:28.122Z,101402.59
2023-01-30T23:35:57.531Z,101416.09
2023-01-30T23:38:26.938Z,101404.66
2023-01-30T23:41:08.104Z,101401.59
2023-01-30T23:43:37.791Z,101403.28
2023-01-30T23:46:19.550Z,101393.19
2023-01-30T23:48:50.214Z,101382.00
2023-01-30T23:51:20.872Z,101380.09
2023-01-30T23:53:50.877Z,101371.06
2023-01-30T23:56:24.619Z,101368.41
2023-01-30T23:58:54.270Z,101375.53
